Greenfield, Ohio
Current Conditions -  °F | °C
As of 8:14 PM on Friday 28 Nov 2014 (Local Time) from KRZT Reporting Station
Clear Clear  
Wind Chill: 25°   Ceiling: Unl
Heat Index: 30°   Visibility: 10mi
Dew Point: 18°   Wind: 5mph
Humidity: 60%   Direction: 180°S
Pressure: 30.18"   Gusts: NA
Location:  39.35°N, 83.38°W
Report Text: KRZT 290114Z AUTO 18004KT 10SM CLR M01/M08 A3018 RMK AO2
Loading
Personal Weather Stations






























Interactive Weather Map New forecast layout! Learn more

10-Day Weather Forecast

Advertisements
Track Severe Weather on mobile